Victoria Beach, Canada
Current Conditions -  °F | °C
As of 6:00 PM on Wednesday 26 Nov 2014 (Local Time) from CYWG Reporting Station
Clear Clear  
Wind Chill: -29°   Ceiling: Unl
Heat Index: -11°   Visibility: 15mi
Dew Point: -18°   Wind: 9mph
Humidity: 70%   Direction: 300°WNW
Pressure: 30.54"   Gusts: NA
Location:  50.7°N, 96.53°W
Report Text: CYWG 270000Z 30008KT 15SM SKC M24/M28 A3054 RMK SLP375
Loading
Personal Weather Stations






























Interactive Weather Map New forecast layout! Learn more

10-Day Weather Forecast

Advertisements
Track Severe Weather on mobile